createdAt,value
2022-11-12T00:03:11.986Z,64.20
2022-11-12T00:06:33.959Z,65.63
2022-11-12T00:09:57.254Z,60.97
2022-11-12T00:13:19.270Z,67.63
2022-11-12T00:16:41.472Z,73.20
2022-11-12T00:20:03.473Z,68.70
2022-11-12T00:23:25.364Z,69.80
2022-11-12T00:26:48.507Z,66.78
2022-11-12T00:30:11.141Z,71.10
2022-11-12T00:33:33.164Z,66.13
2022-11-12T00:36:55.290Z,73.57
2022-11-12T00:40:18.220Z,77.10
2022-11-12T00:43:41.421Z,68.57
2022-11-12T00:47:03.142Z,69.00
2022-11-12T00:50:25.743Z,66.43
2022-11-12T00:53:49.022Z,71.88
2022-11-12T00:57:10.532Z,73.30
2022-11-12T01:00:33.454Z,74.75
2022-11-12T01:03:55.748Z,72.82
2022-11-12T01:07:17.559Z,71.78
2022-11-12T01:10:39.176Z,74.18
2022-11-12T01:14:03.043Z,71.88
2022-11-12T01:17:26.244Z,80.28
2022-11-12T01:20:48.041Z,72.65
2022-11-12T01:24:10.991Z,73.13
2022-11-12T01:27:34.858Z,76.10
2022-11-12T01:30:56.680Z,77.85
2022-11-12T01:34:19.930Z,77.47
2022-11-12T01:37:41.727Z,72.57
2022-11-12T01:41:04.115Z,81.90
2022-11-12T01:44:29.175Z,73.35
2022-11-12T01:47:53.024Z,69.53
2022-11-12T01:51:17.188Z,78.07
2022-11-12T01:54:39.676Z,73.50
2022-11-12T01:58:06.817Z,79.05
2022-11-12T02:01:28.460Z,78.55
2022-11-12T02:04:51.543Z,77.50
2022-11-12T02:08:15.373Z,72.00
2022-11-12T02:11:37.252Z,69.10
2022-11-12T02:14:57.783Z,72.78
2022-11-12T02:18:19.385Z,72.78
2022-11-12T02:21:43.116Z,74.18
2022-11-12T02:25:06.304Z,78.15
2022-11-12T02:28:29.696Z,69.75
2022-11-12T02:31:51.573Z,66.85
2022-11-12T02:35:13.641Z,72.95
2022-11-12T02:38:36.979Z,67.90
2022-11-12T02:41:58.882Z,72.15
2022-11-12T02:45:21.064Z,69.78
2022-11-12T02:48:42.809Z,64.30
2022-11-12T02:52:05.015Z,68.57
2022-11-12T02:55:28.162Z,65.15
2022-11-12T02:58:49.868Z,66.93
2022-11-12T03:02:11.435Z,69.45
2022-11-12T03:05:34.936Z,62.20
2022-11-12T03:08:56.431Z,69.75
2022-11-12T03:12:19.341Z,68.60
2022-11-12T03:15:40.963Z,70.22
2022-11-12T03:19:02.862Z,72.43
2022-11-12T03:22:24.568Z,67.38
2022-11-12T03:25:46.210Z,64.82
2022-11-12T03:29:09.253Z,67.53
2022-11-12T03:32:31.114Z,70.10
2022-11-12T03:35:52.980Z,59.90
2022-11-12T03:39:14.960Z,64.75
2022-11-12T03:42:36.584Z,57.22
2022-11-12T03:45:59.556Z,61.58
2022-11-12T03:49:21.442Z,60.65
2022-11-12T03:52:46.313Z,68.20
2022-11-12T03:56:08.330Z,68.38
2022-11-12T03:59:29.996Z,61.10
2022-11-12T04:02:53.396Z,63.60
2022-11-12T04:06:32.147Z,59.83
2022-11-12T04:09:54.072Z,62.85
2022-11-12T04:13:31.364Z,64.38
2022-11-12T04:17:10.255Z,60.78
2022-11-12T04:20:51.096Z,66.88
2022-11-12T04:24:32.842Z,70.20
2022-11-12T04:27:54.742Z,71.70
2022-11-12T04:31:15.236Z,71.38
2022-11-12T04:38:22.331Z,75.28
2022-11-12T04:42:01.810Z,78.05
2022-11-12T04:45:23.933Z,75.53
2022-11-12T04:48:46.048Z,73.40
2022-11-12T04:52:10.735Z,81.60
2022-11-12T04:55:33.973Z,79.88
2022-11-12T04:58:56.003Z,81.10
2022-11-12T05:02:18.961Z,80.78
2022-11-12T05:05:40.871Z,67.57
2022-11-12T05:09:02.886Z,77.63
2022-11-12T05:12:27.428Z,79.75
2022-11-12T05:15:49.053Z,77.35
2022-11-12T05:19:10.880Z,84.90
2022-11-12T05:22:43.343Z,77.22
2022-11-12T05:26:07.584Z,80.40
2022-11-12T05:29:30.584Z,75.13
2022-11-12T05:32:52.099Z,75.63
2022-11-12T05:36:13.708Z,74.82
2022-11-12T05:39:35.384Z,80.43
2022-11-12T05:42:57.110Z,72.65
2022-11-12T05:46:20.404Z,68.70
2022-11-12T05:49:41.968Z,63.33
2022-11-12T05:53:03.652Z,62.10
2022-11-12T05:56:25.193Z,63.72
2022-11-12T05:59:46.902Z,69.68
2022-11-12T06:03:11.358Z,67.97
2022-11-12T06:06:33.097Z,68.95
2022-11-12T06:09:54.761Z,72.13
2022-11-12T06:13:16.945Z,62.42
2022-11-12T06:16:38.527Z,71.03
2022-11-12T06:20:02.590Z,66.30
2022-11-12T06:23:24.329Z,63.97
2022-11-12T06:26:46.043Z,70.97
2022-11-12T06:30:09.966Z,62.80
2022-11-12T06:33:32.041Z,70.07
2022-11-12T06:36:55.279Z,67.55
2022-11-12T06:40:17.183Z,56.08
2022-11-12T06:43:39.072Z,70.10
2022-11-12T06:47:00.838Z,60.35
2022-11-12T06:50:22.761Z,60.10
2022-11-12T06:53:46.399Z,55.30
2022-11-12T06:57:08.216Z,51.60
2022-11-12T07:00:29.926Z,57.67
2022-11-12T07:03:54.050Z,53.63
2022-11-12T07:07:15.697Z,54.60
2022-11-12T07:10:38.912Z,51.78
2022-11-12T07:14:01.002Z,49.80
2022-11-12T07:17:23.142Z,52.50
2022-11-12T07:20:44.827Z,53.60
2022-11-12T07:24:06.711Z,47.90
2022-11-12T07:27:32.429Z,51.45
2022-11-12T07:30:58.722Z,53.15
2022-11-12T07:34:20.542Z,42.30
2022-11-12T07:37:42.262Z,44.22
2022-11-12T07:41:05.870Z,50.13
2022-11-12T07:44:29.167Z,43.47
2022-11-12T07:47:50.628Z,42.20
2022-11-12T07:51:14.913Z,44.15
2022-11-12T07:54:36.865Z,40.03
2022-11-12T07:58:00.600Z,66.97
2022-11-12T08:01:31.499Z,46.22
2022-11-12T08:04:54.146Z,42.67
2022-11-12T08:08:15.733Z,40.00
2022-11-12T08:11:37.679Z,41.70
2022-11-12T08:14:59.489Z,51.00
2022-11-12T08:18:28.143Z,41.75
2022-11-12T08:22:02.735Z,54.63
2022-11-12T08:33:08.415Z,58.50
2022-11-12T08:37:18.327Z,59.47
2022-11-12T08:40:42.641Z,52.63
2022-11-12T08:44:08.465Z,50.80
2022-11-12T08:47:30.863Z,38.13
2022-11-12T08:50:52.826Z,45.95
2022-11-12T08:54:18.666Z,51.65
2022-11-12T08:57:44.663Z,40.60
2022-11-12T09:01:09.138Z,29.02
2022-11-12T09:04:31.097Z,44.85
2022-11-12T09:07:58.840Z,38.70
2022-11-12T09:11:22.128Z,37.60
2022-11-12T09:14:44.075Z,36.88
2022-11-12T09:18:08.064Z,34.60
2022-11-12T09:21:29.969Z,30.02
2022-11-12T09:24:52.093Z,24.35
2022-11-12T09:28:17.051Z,19.20
2022-11-12T09:31:39.060Z,24.83
2022-11-12T09:35:00.995Z,20.90
2022-11-12T09:38:23.366Z,19.73
2022-11-12T09:41:45.229Z,26.52
2022-11-12T09:45:15.378Z,23.02
2022-11-12T09:52:07.226Z,22.42
2022-11-12T09:55:34.347Z,23.92
2022-11-12T09:58:56.372Z,22.77
2022-11-12T10:02:30.261Z,24.63
2022-11-12T10:05:59.900Z,24.13
2022-11-12T10:09:26.996Z,21.77
2022-11-12T10:13:05.021Z,27.70
2022-11-12T10:16:45.937Z,22.83
2022-11-12T10:20:18.556Z,22.98
2022-11-12T10:23:44.827Z,25.58
2022-11-12T10:27:18.443Z,25.48
2022-11-12T10:30:41.666Z,25.88
2022-11-12T10:34:16.991Z,24.67
2022-11-12T10:37:45.670Z,26.10
2022-11-12T10:41:22.391Z,24.88
2022-11-12T10:44:45.288Z,29.02
2022-11-12T10:48:26.004Z,35.80
2022-11-12T10:51:57.010Z,40.75
2022-11-12T10:55:24.040Z,41.13
2022-11-12T10:58:45.536Z,37.55
2022-11-12T11:02:18.108Z,31.83
2022-11-12T11:05:51.401Z,30.20
2022-11-12T11:09:20.570Z,33.05
2022-11-12T11:12:43.562Z,34.60
2022-11-12T11:16:07.700Z,32.13
2022-11-12T11:19:37.300Z,38.78
2022-11-12T11:23:05.223Z,40.35
2022-11-12T11:26:36.784Z,44.45
2022-11-12T11:30:11.894Z,42.40
2022-11-12T11:33:42.060Z,37.22
2022-11-12T11:37:19.224Z,36.78
2022-11-12T11:40:51.558Z,34.13
2022-11-12T11:44:23.216Z,36.17
2022-11-12T11:48:01.178Z,37.40
2022-11-12T11:51:43.769Z,52.13
2022-11-12T11:55:15.734Z,47.55
2022-11-12T11:59:01.552Z,41.13
2022-11-12T12:02:50.494Z,39.83
2022-11-12T12:06:26.552Z,36.97
2022-11-12T12:09:56.650Z,34.97
2022-11-12T12:13:29.762Z,32.40
2022-11-12T12:17:02.911Z,31.73
2022-11-12T12:20:33.921Z,30.92
2022-11-12T12:24:01.223Z,36.00
2022-11-12T12:27:27.110Z,54.30
2022-11-12T12:30:56.111Z,56.63
2022-11-12T12:34:22.485Z,57.70
2022-11-12T12:37:54.239Z,64.47
2022-11-12T12:41:20.870Z,55.28
2022-11-12T12:45:05.025Z,46.72
2022-11-12T12:48:32.103Z,48.58
2022-11-12T12:51:55.903Z,51.58
2022-11-12T12:55:37.561Z,45.58
2022-11-12T12:59:03.697Z,42.05
2022-11-12T13:02:26.611Z,53.28
2022-11-12T13:06:08.853Z,55.13
2022-11-12T13:09:30.822Z,48.67
2022-11-12T13:13:35.650Z,45.33
2022-11-12T13:16:59.994Z,58.45
2022-11-12T13:20:43.228Z,54.00
2022-11-12T13:24:11.130Z,51.53
2022-11-12T13:28:10.113Z,50.85
2022-11-12T13:31:34.080Z,51.13
2022-11-12T13:35:31.920Z,46.78
2022-11-12T13:38:58.802Z,40.72
2022-11-12T13:42:54.076Z,47.40
2022-11-12T13:46:27.488Z,45.67
2022-11-12T13:49:50.094Z,44.85
2022-11-12T13:53:20.252Z,47.92
2022-11-12T14:00:20.941Z,57.65
2022-11-12T14:03:47.399Z,57.75
2022-11-12T14:07:20.918Z,57.28
2022-11-12T14:10:51.341Z,62.78
2022-11-12T14:17:49.316Z,64.38
2022-11-12T14:21:17.997Z,67.07
2022-11-12T14:24:40.615Z,61.72
2022-11-12T14:28:02.611Z,50.97
2022-11-12T14:31:26.288Z,56.90
2022-11-12T14:34:48.561Z,54.95
2022-11-12T14:38:19.705Z,57.88
2022-11-12T14:41:46.139Z,53.40
2022-11-12T14:45:18.015Z,55.47
2022-11-12T14:48:48.901Z,50.95
2022-11-12T14:52:15.124Z,54.05
2022-11-12T14:55:41.997Z,66.47
2022-11-12T14:59:05.316Z,61.85
2022-11-12T15:02:53.433Z,64.70
2022-11-12T15:06:16.858Z,85.35
2022-11-12T15:09:40.526Z,93.07
2022-11-12T15:13:05.956Z,56.00
2022-11-12T15:16:30.624Z,59.78
2022-11-12T15:19:52.854Z,61.42
2022-11-12T15:23:20.391Z,61.75
2022-11-12T15:26:45.324Z,64.28
2022-11-12T15:30:17.499Z,75.32
2022-11-12T15:33:39.587Z,98.22
2022-11-12T15:37:06.258Z,86.70
2022-11-12T15:40:28.607Z,66.00
2022-11-12T15:43:50.718Z,68.50
2022-11-12T15:47:21.468Z,76.25
2022-11-12T15:50:43.764Z,77.35
2022-11-12T15:54:06.298Z,75.70
2022-11-12T15:57:31.341Z,74.50
2022-11-12T16:00:53.868Z,76.22
2022-11-12T16:04:17.392Z,87.13
2022-11-12T16:07:39.653Z,84.78
2022-11-12T16:11:01.764Z,119.97
2022-11-12T16:14:25.131Z,126.05
2022-11-12T16:17:49.593Z,88.03
2022-11-12T16:21:20.508Z,105.03
2022-11-12T16:24:43.006Z,101.32
2022-11-12T16:28:07.814Z,175.63
2022-11-12T16:31:29.739Z,145.10
2022-11-12T16:34:52.451Z,170.23
2022-11-12T16:38:19.389Z,133.32
2022-11-12T16:41:41.045Z,145.40
2022-11-12T16:45:02.972Z,179.77
2022-11-12T16:48:24.866Z,149.75
2022-11-12T16:51:47.125Z,125.15
2022-11-12T16:55:11.171Z,132.82
2022-11-12T16:58:35.120Z,141.45
2022-11-12T17:01:57.040Z,140.65
2022-11-12T17:05:21.115Z,145.85
2022-11-12T17:08:44.587Z,147.88
2022-11-12T17:12:09.035Z,180.07
2022-11-12T17:15:30.875Z,200.73
2022-11-12T17:18:55.575Z,222.27
2022-11-12T17:22:19.966Z,237.15
2022-11-12T17:25:41.931Z,229.52
2022-11-12T17:29:08.274Z,204.82
2022-11-12T17:32:30.579Z,182.35
2022-11-12T17:35:52.740Z,165.15
2022-11-12T17:39:15.011Z,157.50
2022-11-12T17:42:37.038Z,153.00
2022-11-12T17:46:01.107Z,165.30
2022-11-12T17:49:22.930Z,140.70
2022-11-12T17:52:46.807Z,137.98
2022-11-12T17:56:11.086Z,134.82
2022-11-12T17:59:33.208Z,131.88
2022-11-12T18:02:57.342Z,124.85
2022-11-12T18:06:21.566Z,125.25
2022-11-12T18:09:43.640Z,115.90
2022-11-12T18:13:06.023Z,129.73
2022-11-12T18:16:29.294Z,131.73
2022-11-12T18:19:53.070Z,114.90
2022-11-12T18:23:15.158Z,118.50
2022-11-12T18:26:38.383Z,104.45
2022-11-12T18:30:01.389Z,122.95
2022-11-12T18:33:23.315Z,143.70
2022-11-12T18:36:47.137Z,108.45
2022-11-12T18:40:09.951Z,102.75
2022-11-12T18:43:32.163Z,101.20
2022-11-12T18:46:56.026Z,101.68
2022-11-12T18:50:19.342Z,107.15
2022-11-12T18:53:44.093Z,106.20
2022-11-12T18:57:07.643Z,109.32
2022-11-12T19:00:29.845Z,100.78
2022-11-12T19:04:03.569Z,102.05
2022-11-12T19:07:25.429Z,103.55
2022-11-12T19:10:48.740Z,95.95
2022-11-12T19:14:11.783Z,111.57
2022-11-12T19:17:33.993Z,113.18
2022-11-12T19:21:03.280Z,104.03
2022-11-12T19:24:25.454Z,106.15
2022-11-12T19:27:49.163Z,95.20
2022-11-12T19:31:15.402Z,93.80
2022-11-12T19:34:37.116Z,95.07
2022-11-12T19:37:58.742Z,95.07
2022-11-12T19:41:20.439Z,109.57
2022-11-12T19:44:43.494Z,93.53
2022-11-12T19:48:06.050Z,89.95
2022-11-12T19:51:28.474Z,92.20
2022-11-12T19:54:50.316Z,90.30
2022-11-12T19:58:12.364Z,93.60
2022-11-12T20:01:35.736Z,86.85
2022-11-12T20:04:57.385Z,88.63
2022-11-12T20:08:21.546Z,83.80
2022-11-12T20:11:44.243Z,80.57
2022-11-12T20:15:09.225Z,83.68
2022-11-12T20:18:37.842Z,84.47
2022-11-12T20:22:00.832Z,85.82
2022-11-12T20:25:24.976Z,87.88
2022-11-12T20:28:59.004Z,80.65
2022-11-12T20:32:22.109Z,80.03
2022-11-12T20:35:46.943Z,78.07
2022-11-12T20:39:10.562Z,82.53
2022-11-12T20:42:32.972Z,87.90
2022-11-12T20:45:55.001Z,79.78
2022-11-12T20:49:17.344Z,92.93
2022-11-12T20:52:42.104Z,88.75
2022-11-12T20:56:10.358Z,84.25
2022-11-12T20:59:32.340Z,89.53
2022-11-12T21:02:54.155Z,84.53
2022-11-12T21:06:19.060Z,79.80
2022-11-12T21:09:43.341Z,89.57
2022-11-12T21:13:05.165Z,86.50
2022-11-12T21:16:27.964Z,126.72
2022-11-12T21:19:52.623Z,135.00
2022-11-12T21:23:16.172Z,111.05
2022-11-12T21:26:45.744Z,181.68
2022-11-12T21:30:11.443Z,71.40
2022-11-12T21:33:33.359Z,88.03
2022-11-12T21:36:56.512Z,82.65
2022-11-12T21:40:20.130Z,90.72
2022-11-12T21:43:45.666Z,81.85
2022-11-12T21:47:07.621Z,88.90
2022-11-12T21:50:32.133Z,88.10
2022-11-12T21:53:58.347Z,91.82
2022-11-12T21:57:20.334Z,85.75
2022-11-12T22:00:43.243Z,83.43
2022-11-12T22:04:08.373Z,90.90
2022-11-12T22:07:30.242Z,90.88
2022-11-12T22:10:51.807Z,90.25
2022-11-12T22:14:13.286Z,95.68
2022-11-12T22:17:36.506Z,96.90
2022-11-12T22:20:58.963Z,96.85
2022-11-12T22:24:20.968Z,99.03
2022-11-12T22:27:42.696Z,89.88
2022-11-12T22:31:05.428Z,104.78
2022-11-12T22:34:28.774Z,110.90
2022-11-12T22:37:50.530Z,103.07
2022-11-12T22:41:14.159Z,97.32
2022-11-12T22:44:36.101Z,96.70
2022-11-12T22:48:00.046Z,91.28
2022-11-12T22:51:25.224Z,98.20
2022-11-12T22:54:46.823Z,93.80
2022-11-12T22:58:09.073Z,92.65
2022-11-12T23:01:34.096Z,92.75
2022-11-12T23:04:56.195Z,92.85
2022-11-12T23:08:19.219Z,98.55
2022-11-12T23:11:40.926Z,103.60
2022-11-12T23:15:03.066Z,100.82
2022-11-12T23:18:25.123Z,99.00
2022-11-12T23:21:47.945Z,97.82
2022-11-12T23:25:11.905Z,99.20
2022-11-12T23:28:34.780Z,103.57
2022-11-12T23:31:56.858Z,106.50
2022-11-12T23:35:18.905Z,111.07
2022-11-12T23:38:41.085Z,108.25
2022-11-12T23:42:04.485Z,102.68
2022-11-12T23:45:26.247Z,118.25
2022-11-12T23:48:48.536Z,108.35
2022-11-12T23:52:10.285Z,113.13
2022-11-12T23:55:36.081Z,119.28
2022-11-12T23:59:02.277Z,118.15
